sensor_id;sensor_type;location;lat;lon;timestamp;P1;durP1;ratioP1;P2;durP2;ratioP2
4903;SDS011;2467;48.142;11.616;2022-11-14T00:00:07;15.48;;;13.95;;
4903;SDS011;2467;48.142;11.616;2022-11-14T00:00:42;15.95;;;13.27;;
4903;SDS011;2467;48.142;11.616;2022-11-14T00:01:16;15.38;;;13.75;;
4903;SDS011;2467;48.142;11.616;2022-11-14T00:01:48;14.65;;;13.23;;
4903;SDS011;2467;48.142;11.616;2022-11-14T00:02:21;15.55;;;13.95;;
4903;SDS011;2467;48.142;11.616;2022-11-14T00:02:54;14.52;;;13.00;;
4903;SDS011;2467;48.142;11.616;2022-11-14T00:03:29;15.68;;;14.13;;
4903;SDS011;2467;48.142;11.616;2022-11-14T00:04:01;14.60;;;13.10;;
4903;SDS011;2467;48.142;11.616;2022-11-14T00:04:34;15.43;;;13.93;;
4903;SDS011;2467;48.142;11.616;2022-11-14T00:05:06;16.58;;;14.98;;
4903;SDS011;2467;48.142;11.616;2022-11-14T00:05:40;14.18;;;12.77;;
4903;SDS011;2467;48.142;11.616;2022-11-14T00:06:13;16.30;;;13.18;;
4903;SDS011;2467;48.142;11.616;2022-11-14T00:06:45;15.48;;;14.02;;
4903;SDS011;2467;48.142;11.616;2022-11-14T00:07:18;17.23;;;14.27;;
4903;SDS011;2467;48.142;11.616;2022-11-14T00:07:50;15.38;;;13.32;;
4903;SDS011;2467;48.142;11.616;2022-11-14T00:08:23;14.63;;;13.07;;
4903;SDS011;2467;48.142;11.616;2022-11-14T00:08:56;14.93;;;12.80;;
4903;SDS011;2467;48.142;11.616;2022-11-14T00:09:28;23.15;;;13.55;;
4903;SDS011;2467;48.142;11.616;2022-11-14T00:10:00;13.95;;;12.50;;
4903;SDS011;2467;48.142;11.616;2022-11-14T00:10:33;14.38;;;12.98;;
4903;SDS011;2467;48.142;11.616;2022-11-14T00:11:05;15.95;;;13.32;;
4903;SDS011;2467;48.142;11.616;2022-11-14T00:11:37;26.35;;;12.65;;
4903;SDS011;2467;48.142;11.616;2022-11-14T00:12:10;15.73;;;11.70;;
4903;SDS011;2467;48.142;11.616;2022-11-14T00:12:42;13.15;;;11.85;;
4903;SDS011;2467;48.142;11.616;2022-11-14T00:13:16;15.52;;;14.13;;
4903;SDS011;2467;48.142;11.616;2022-11-14T00:13:50;14.93;;;13.52;;
4903;SDS011;2467;48.142;11.616;2022-11-14T00:14:22;15.95;;;14.35;;
4903;SDS011;2467;48.142;11.616;2022-11-14T00:14:54;13.20;;;12.00;;
4903;SDS011;2467;48.142;11.616;2022-11-14T00:15:26;16.60;;;14.77;;
4903;SDS011;2467;48.142;11.616;2022-11-14T00:15:58;16.17;;;14.70;;
4903;SDS011;2467;48.142;11.616;2022-11-14T00:16:31;15.02;;;13.30;;
4903;SDS011;2467;48.142;11.616;2022-11-14T00:17:03;14.10;;;12.65;;
4903;SDS011;2467;48.142;11.616;2022-11-14T00:17:38;14.48;;;13.18;;
4903;SDS011;2467;48.142;11.616;2022-11-14T00:18:10;15.88;;;13.18;;
4903;SDS011;2467;48.142;11.616;2022-11-14T00:18:41;14.80;;;13.25;;
4903;SDS011;2467;48.142;11.616;2022-11-14T00:19:14;15.20;;;13.60;;
4903;SDS011;2467;48.142;11.616;2022-11-14T00:19:46;15.05;;;13.55;;
4903;SDS011;2467;48.142;11.616;2022-11-14T00:20:18;14.40;;;13.05;;
4903;SDS011;2467;48.142;11.616;2022-11-14T00:20:51;13.00;;;11.80;;
4903;SDS011;2467;48.142;11.616;2022-11-14T00:21:24;14.23;;;12.70;;
4903;SDS011;2467;48.142;11.616;2022-11-14T00:21:55;16.63;;;14.07;;
4903;SDS011;2467;48.142;11.616;2022-11-14T00:22:30;14.65;;;13.25;;
4903;SDS011;2467;48.142;11.616;2022-11-14T00:23:02;15.30;;;13.80;;
4903;SDS011;2467;48.142;11.616;2022-11-14T00:23:34;14.40;;;13.10;;
4903;SDS011;2467;48.142;11.616;2022-11-14T00:24:07;16.67;;;14.40;;
4903;SDS011;2467;48.142;11.616;2022-11-14T00:24:39;14.70;;;13.15;;
4903;SDS011;2467;48.142;11.616;2022-11-14T00:25:10;14.93;;;13.43;;
4903;SDS011;2467;48.142;11.616;2022-11-14T00:25:44;17.48;;;15.68;;
4903;SDS011;2467;48.142;11.616;2022-11-14T00:26:16;17.30;;;14.90;;
4903;SDS011;2467;48.142;11.616;2022-11-14T00:26:49;15.45;;;13.95;;
4903;SDS011;2467;48.142;11.616;2022-11-14T00:27:20;15.40;;;13.77;;
4903;SDS011;2467;48.142;11.616;2022-11-14T00:27:55;15.63;;;14.13;;
4903;SDS011;2467;48.142;11.616;2022-11-14T00:28:28;17.60;;;12.88;;
4903;SDS011;2467;48.142;11.616;2022-11-14T00:29:00;13.55;;;12.15;;
4903;SDS011;2467;48.142;11.616;2022-11-14T00:29:32;15.43;;;13.65;;
4903;SDS011;2467;48.142;11.616;2022-11-14T00:30:05;14.75;;;13.20;;
4903;SDS011;2467;48.142;11.616;2022-11-14T00:30:38;17.30;;;13.30;;
4903;SDS011;2467;48.142;11.616;2022-11-14T00:31:10;15.30;;;12.40;;
4903;SDS011;2467;48.142;11.616;2022-11-14T00:31:43;13.07;;;11.85;;
4903;SDS011;2467;48.142;11.616;2022-11-14T00:32:14;15.25;;;12.73;;
4903;SDS011;2467;48.142;11.616;2022-11-14T00:32:48;15.38;;;12.20;;
4903;SDS011;2467;48.142;11.616;2022-11-14T00:33:20;14.98;;;11.95;;
4903;SDS011;2467;48.142;11.616;2022-11-14T00:33:52;13.05;;;11.85;;
4903;SDS011;2467;48.142;11.616;2022-11-14T00:34:24;16.05;;;13.20;;
4903;SDS011;2467;48.142;11.616;2022-11-14T00:34:58;20.02;;;11.25;;
4903;SDS011;2467;48.142;11.616;2022-11-14T00:35:30;20.55;;;12.77;;
4903;SDS011;2467;48.142;11.616;2022-11-14T00:36:02;11.73;;;10.52;;
4903;SDS011;2467;48.142;11.616;2022-11-14T00:36:35;19.50;;;11.30;;
4903;SDS011;2467;48.142;11.616;2022-11-14T00:37:07;15.32;;;11.85;;
4903;SDS011;2467;48.142;11.616;2022-11-14T00:37:39;15.23;;;12.73;;
4903;SDS011;2467;48.142;11.616;2022-11-14T00:38:11;20.25;;;13.70;;
4903;SDS011;2467;48.142;11.616;2022-11-14T00:38:44;13.75;;;12.35;;
4903;SDS011;2467;48.142;11.616;2022-11-14T00:39:17;19.40;;;12.18;;
4903;SDS011;2467;48.142;11.616;2022-11-14T00:39:49;20.10;;;12.70;;
4903;SDS011;2467;48.142;11.616;2022-11-14T00:40:21;20.10;;;12.45;;
4903;SDS011;2467;48.142;11.616;2022-11-14T00:40:54;22.95;;;13.45;;
4903;SDS011;2467;48.142;11.616;2022-11-14T00:41:26;15.70;;;14.07;;
4903;SDS011;2467;48.142;11.616;2022-11-14T00:41:57;13.93;;;12.52;;
4903;SDS011;2467;48.142;11.616;2022-11-14T00:42:30;13.88;;;12.68;;
4903;SDS011;2467;48.142;11.616;2022-11-14T00:43:02;14.15;;;12.70;;
4903;SDS011;2467;48.142;11.616;2022-11-14T00:43:34;13.93;;;12.60;;
4903;SDS011;2467;48.142;11.616;2022-11-14T00:44:07;15.40;;;13.32;;
4903;SDS011;2467;48.142;11.616;2022-11-14T00:44:39;13.98;;;12.68;;
4903;SDS011;2467;48.142;11.616;2022-11-14T00:45:11;16.98;;;12.48;;
4903;SDS011;2467;48.142;11.616;2022-11-14T00:45:44;14.70;;;13.25;;
4903;SDS011;2467;48.142;11.616;2022-11-14T00:46:17;13.65;;;12.35;;
4903;SDS011;2467;48.142;11.616;2022-11-14T00:46:48;16.08;;;13.93;;
4903;SDS011;2467;48.142;11.616;2022-11-14T00:47:21;22.70;;;12.60;;
4903;SDS011;2467;48.142;11.616;2022-11-14T00:47:54;13.07;;;11.75;;
4903;SDS011;2467;48.142;11.616;2022-11-14T00:48:26;15.77;;;12.55;;
4903;SDS011;2467;48.142;11.616;2022-11-14T00:48:59;13.75;;;12.45;;
4903;SDS011;2467;48.142;11.616;2022-11-14T00:49:31;13.90;;;12.50;;
4903;SDS011;2467;48.142;11.616;2022-11-14T00:50:03;13.38;;;12.18;;
4903;SDS011;2467;48.142;11.616;2022-11-14T00:50:37;13.80;;;12.38;;
4903;SDS011;2467;48.142;11.616;2022-11-14T00:51:09;13.02;;;11.68;;
4903;SDS011;2467;48.142;11.616;2022-11-14T00:51:41;14.88;;;12.65;;
4903;SDS011;2467;48.142;11.616;2022-11-14T00:52:14;13.10;;;11.70;;
4903;SDS011;2467;48.142;11.616;2022-11-14T00:52:46;14.70;;;13.30;;
4903;SDS011;2467;48.142;11.616;2022-11-14T00:53:18;13.85;;;12.40;;
4903;SDS011;2467;48.142;11.616;2022-11-14T00:53:50;14.32;;;13.02;;
4903;SDS011;2467;48.142;11.616;2022-11-14T00:54:22;12.65;;;11.55;;
4903;SDS011;2467;48.142;11.616;2022-11-14T00:54:56;13.80;;;12.25;;
4903;SDS011;2467;48.142;11.616;2022-11-14T00:55:29;14.85;;;13.40;;
4903;SDS011;2467;48.142;11.616;2022-11-14T00:56:01;13.30;;;11.95;;
4903;SDS011;2467;48.142;11.616;2022-11-14T00:56:34;13.85;;;12.55;;
4903;SDS011;2467;48.142;11.616;2022-11-14T00:57:06;14.55;;;13.15;;
4903;SDS011;2467;48.142;11.616;2022-11-14T00:57:38;12.88;;;11.68;;
4903;SDS011;2467;48.142;11.616;2022-11-14T00:58:10;14.20;;;12.95;;
4903;SDS011;2467;48.142;11.616;2022-11-14T00:58:42;12.45;;;11.25;;
4903;SDS011;2467;48.142;11.616;2022-11-14T00:59:15;13.82;;;12.48;;
4903;SDS011;2467;48.142;11.616;2022-11-14T00:59:46;13.38;;;12.02;;
4903;SDS011;2467;48.142;11.616;2022-11-14T01:00:18;18.90;;;12.00;;
4903;SDS011;2467;48.142;11.616;2022-11-14T01:00:51;16.55;;;11.23;;
4903;SDS011;2467;48.142;11.616;2022-11-14T01:01:23;11.68;;;10.57;;
4903;SDS011;2467;48.142;11.616;2022-11-14T01:01:55;11.85;;;10.63;;
4903;SDS011;2467;48.142;11.616;2022-11-14T01:02:28;13.15;;;11.95;;
4903;SDS011;2467;48.142;11.616;2022-11-14T01:03:01;13.48;;;11.63;;
4903;SDS011;2467;48.142;11.616;2022-11-14T01:03:33;12.95;;;11.75;;
4903;SDS011;2467;48.142;11.616;2022-11-14T01:04:06;12.05;;;10.88;;
4903;SDS011;2467;48.142;11.616;2022-11-14T01:04:38;18.27;;;11.68;;
4903;SDS011;2467;48.142;11.616;2022-11-14T01:05:10;12.35;;;11.13;;
4903;SDS011;2467;48.142;11.616;2022-11-14T01:05:43;13.00;;;11.82;;
4903;SDS011;2467;48.142;11.616;2022-11-14T01:06:16;12.57;;;11.35;;
4903;SDS011;2467;48.142;11.616;2022-11-14T01:06:49;13.60;;;12.30;;
4903;SDS011;2467;48.142;11.616;2022-11-14T01:07:22;12.40;;;10.25;;
4903;SDS011;2467;48.142;11.616;2022-11-14T01:07:54;12.25;;;11.15;;
4903;SDS011;2467;48.142;11.616;2022-11-14T01:08:26;12.77;;;11.48;;
4903;SDS011;2467;48.142;11.616;2022-11-14T01:08:59;11.77;;;10.73;;
4903;SDS011;2467;48.142;11.616;2022-11-14T01:09:31;12.25;;;9.88;;
4903;SDS011;2467;48.142;11.616;2022-11-14T01:10:03;14.90;;;11.75;;
4903;SDS011;2467;48.142;11.616;2022-11-14T01:10:37;11.82;;;10.57;;
4903;SDS011;2467;48.142;11.616;2022-11-14T01:11:11;10.98;;;10.02;;
4903;SDS011;2467;48.142;11.616;2022-11-14T01:11:46;12.15;;;11.02;;
4903;SDS011;2467;48.142;11.616;2022-11-14T01:12:18;12.15;;;10.75;;
4903;SDS011;2467;48.142;11.616;2022-11-14T01:12:50;12.73;;;10.93;;
4903;SDS011;2467;48.142;11.616;2022-11-14T01:13:23;13.68;;;12.00;;
4903;SDS011;2467;48.142;11.616;2022-11-14T01:13:55;12.02;;;10.80;;
4903;SDS011;2467;48.142;11.616;2022-11-14T01:14:27;11.25;;;10.15;;
4903;SDS011;2467;48.142;11.616;2022-11-14T01:15:00;11.52;;;10.48;;
4903;SDS011;2467;48.142;11.616;2022-11-14T01:15:32;11.52;;;10.13;;
4903;SDS011;2467;48.142;11.616;2022-11-14T01:16:04;11.77;;;9.57;;
4903;SDS011;2467;48.142;11.616;2022-11-14T01:16:38;11.55;;;10.45;;
4903;SDS011;2467;48.142;11.616;2022-11-14T01:17:10;11.85;;;10.75;;
4903;SDS011;2467;48.142;11.616;2022-11-14T01:17:42;12.57;;;11.05;;
4903;SDS011;2467;48.142;11.616;2022-11-14T01:18:17;13.00;;;11.52;;
4903;SDS011;2467;48.142;11.616;2022-11-14T01:18:50;12.18;;;10.60;;
4903;SDS011;2467;48.142;11.616;2022-11-14T01:19:22;12.32;;;11.23;;
4903;SDS011;2467;48.142;11.616;2022-11-14T01:19:55;10.45;;;9.35;;
4903;SDS011;2467;48.142;11.616;2022-11-14T01:20:27;10.20;;;9.30;;
4903;SDS011;2467;48.142;11.616;2022-11-14T01:20:58;9.98;;;9.07;;
4903;SDS011;2467;48.142;11.616;2022-11-14T01:21:35;12.20;;;10.95;;
4903;SDS011;2467;48.142;11.616;2022-11-14T01:22:07;11.35;;;10.25;;
4903;SDS011;2467;48.142;11.616;2022-11-14T01:22:38;10.45;;;9.55;;
4903;SDS011;2467;48.142;11.616;2022-11-14T01:23:12;10.10;;;9.20;;
4903;SDS011;2467;48.142;11.616;2022-11-14T01:23:45;11.00;;;10.00;;
4903;SDS011;2467;48.142;11.616;2022-11-14T01:24:17;10.98;;;10.00;;
4903;SDS011;2467;48.142;11.616;2022-11-14T01:24:50;12.05;;;11.02;;
4903;SDS011;2467;48.142;11.616;2022-11-14T01:25:21;14.50;;;12.85;;
4903;SDS011;2467;48.142;11.616;2022-11-14T01:25:53;14.15;;;12.93;;
4903;SDS011;2467;48.142;11.616;2022-11-14T01:26:32;15.18;;;13.77;;
4903;SDS011;2467;48.142;11.616;2022-11-14T01:27:04;16.48;;;14.40;;
4903;SDS011;2467;48.142;11.616;2022-11-14T01:27:36;19.95;;;17.92;;
4903;SDS011;2467;48.142;11.616;2022-11-14T01:28:09;17.88;;;14.20;;
4903;SDS011;2467;48.142;11.616;2022-11-14T01:28:42;12.85;;;11.55;;
4903;SDS011;2467;48.142;11.616;2022-11-14T01:29:14;11.90;;;10.90;;
4903;SDS011;2467;48.142;11.616;2022-11-14T01:29:47;11.48;;;10.27;;
4903;SDS011;2467;48.142;11.616;2022-11-14T01:30:19;12.20;;;11.00;;
4903;SDS011;2467;48.142;11.616;2022-11-14T01:30:51;11.25;;;10.20;;
4903;SDS011;2467;48.142;11.616;2022-11-14T01:31:23;11.60;;;10.60;;
4903;SDS011;2467;48.142;11.616;2022-11-14T01:31:55;15.45;;;14.00;;
4903;SDS011;2467;48.142;11.616;2022-11-14T01:32:28;14.65;;;12.70;;
4903;SDS011;2467;48.142;11.616;2022-11-14T01:33:00;11.25;;;10.20;;
4903;SDS011;2467;48.142;11.616;2022-11-14T01:33:33;11.35;;;10.27;;
4903;SDS011;2467;48.142;11.616;2022-11-14T01:34:05;10.40;;;9.50;;
4903;SDS011;2467;48.142;11.616;2022-11-14T01:34:38;10.35;;;9.30;;
4903;SDS011;2467;48.142;11.616;2022-11-14T01:35:10;10.15;;;9.25;;
4903;SDS011;2467;48.142;11.616;2022-11-14T01:35:42;9.60;;;8.80;;
4903;SDS011;2467;48.142;11.616;2022-11-14T01:36:14;9.25;;;8.45;;
4903;SDS011;2467;48.142;11.616;2022-11-14T01:36:47;21.88;;;8.57;;
4903;SDS011;2467;48.142;11.616;2022-11-14T01:37:18;29.50;;;9.43;;
4903;SDS011;2467;48.142;11.616;2022-11-14T01:37:50;8.95;;;8.15;;
4903;SDS011;2467;48.142;11.616;2022-11-14T01:38:22;10.07;;;8.07;;
4903;SDS011;2467;48.142;11.616;2022-11-14T01:38:55;11.52;;;8.52;;
4903;SDS011;2467;48.142;11.616;2022-11-14T01:39:27;12.70;;;9.27;;
4903;SDS011;2467;48.142;11.616;2022-11-14T01:39:59;10.55;;;9.45;;
4903;SDS011;2467;48.142;11.616;2022-11-14T01:40:31;9.13;;;8.30;;
4903;SDS011;2467;48.142;11.616;2022-11-14T01:41:04;10.02;;;9.13;;
4903;SDS011;2467;48.142;11.616;2022-11-14T01:41:36;12.30;;;9.25;;
4903;SDS011;2467;48.142;11.616;2022-11-14T01:42:09;9.93;;;9.02;;
4903;SDS011;2467;48.142;11.616;2022-11-14T01:42:40;10.18;;;9.18;;
4903;SDS011;2467;48.142;11.616;2022-11-14T01:43:22;10.50;;;8.95;;
4903;SDS011;2467;48.142;11.616;2022-11-14T01:43:56;10.30;;;9.35;;
4903;SDS011;2467;48.142;11.616;2022-11-14T01:44:40;10.88;;;9.80;;
4903;SDS011;2467;48.142;11.616;2022-11-14T01:46:18;9.30;;;8.50;;
4903;SDS011;2467;48.142;11.616;2022-11-14T01:46:54;10.30;;;9.30;;
4903;SDS011;2467;48.142;11.616;2022-11-14T01:47:29;13.70;;;8.65;;
4903;SDS011;2467;48.142;11.616;2022-11-14T01:48:03;10.63;;;9.65;;
4903;SDS011;2467;48.142;11.616;2022-11-14T01:48:42;11.52;;;10.48;;
4903;SDS011;2467;48.142;11.616;2022-11-14T01:49:19;10.80;;;9.48;;
4903;SDS011;2467;48.142;11.616;2022-11-14T01:49:53;16.98;;;9.95;;
4903;SDS011;2467;48.142;11.616;2022-11-14T01:50:28;10.43;;;9.50;;
4903;SDS011;2467;48.142;11.616;2022-11-14T01:51:02;10.30;;;9.20;;
4903;SDS011;2467;48.142;11.616;2022-11-14T01:51:44;10.85;;;9.75;;
4903;SDS011;2467;48.142;11.616;2022-11-14T01:52:20;11.43;;;10.35;;
4903;SDS011;2467;48.142;11.616;2022-11-14T01:52:55;13.10;;;9.82;;
4903;SDS011;2467;48.142;11.616;2022-11-14T01:53:27;10.18;;;9.07;;
4903;SDS011;2467;48.142;11.616;2022-11-14T01:54:00;13.38;;;10.48;;
4903;SDS011;2467;48.142;11.616;2022-11-14T01:54:36;10.57;;;9.68;;
4903;SDS011;2467;48.142;11.616;2022-11-14T01:55:11;11.13;;;10.13;;
4903;SDS011;2467;48.142;11.616;2022-11-14T01:55:44;10.57;;;9.55;;
4903;SDS011;2467;48.142;11.616;2022-11-14T01:56:16;11.10;;;9.35;;
4903;SDS011;2467;48.142;11.616;2022-11-14T01:56:54;14.25;;;9.82;;
4903;SDS011;2467;48.142;11.616;2022-11-14T01:57:28;18.00;;;10.57;;
4903;SDS011;2467;48.142;11.616;2022-11-14T01:58:03;11.30;;;9.68;;
4903;SDS011;2467;48.142;11.616;2022-11-14T01:58:37;11.40;;;10.32;;
4903;SDS011;2467;48.142;11.616;2022-11-14T01:59:14;10.90;;;9.88;;
4903;SDS011;2467;48.142;11.616;2022-11-14T01:59:56;9.90;;;9.00;;
4903;SDS011;2467;48.142;11.616;2022-11-14T02:00:31;15.30;;;10.20;;
4903;SDS011;2467;48.142;11.616;2022-11-14T02:01:03;11.07;;;10.18;;
4903;SDS011;2467;48.142;11.616;2022-11-14T02:01:37;18.40;;;10.18;;
4903;SDS011;2467;48.142;11.616;2022-11-14T02:02:15;14.95;;;9.68;;
4903;SDS011;2467;48.142;11.616;2022-11-14T02:02:48;20.45;;;10.32;;
4903;SDS011;2467;48.142;11.616;2022-11-14T02:03:22;14.25;;;9.55;;
4903;SDS011;2467;48.142;11.616;2022-11-14T02:03:55;11.88;;;10.77;;
4903;SDS011;2467;48.142;11.616;2022-11-14T02:04:28;11.52;;;10.40;;
4903;SDS011;2467;48.142;11.616;2022-11-14T02:05:05;10.70;;;9.68;;
4903;SDS011;2467;48.142;11.616;2022-11-14T02:05:40;10.70;;;9.70;;
4903;SDS011;2467;48.142;11.616;2022-11-14T02:06:16;12.73;;;11.43;;
4903;SDS011;2467;48.142;11.616;2022-11-14T02:06:53;25.25;;;11.52;;
4903;SDS011;2467;48.142;11.616;2022-11-14T02:07:30;12.85;;;9.88;;
4903;SDS011;2467;48.142;11.616;2022-11-14T02:08:05;12.77;;;10.07;;
4903;SDS011;2467;48.142;11.616;2022-11-14T02:08:38;14.77;;;10.77;;
4903;SDS011;2467;48.142;11.616;2022-11-14T02:09:11;12.13;;;11.02;;
4903;SDS011;2467;48.142;11.616;2022-11-14T02:09:45;12.10;;;11.05;;
4903;SDS011;2467;48.142;11.616;2022-11-14T02:10:20;10.93;;;9.93;;
4903;SDS011;2467;48.142;11.616;2022-11-14T02:10:52;11.75;;;10.57;;
4903;SDS011;2467;48.142;11.616;2022-11-14T02:11:24;13.27;;;11.98;;
4903;SDS011;2467;48.142;11.616;2022-11-14T02:12:00;12.80;;;11.50;;
4903;SDS011;2467;48.142;11.616;2022-11-14T02:12:34;13.35;;;12.15;;
4903;SDS011;2467;48.142;11.616;2022-11-14T02:13:07;12.55;;;11.35;;
4903;SDS011;2467;48.142;11.616;2022-11-14T02:13:40;11.52;;;10.35;;
4903;SDS011;2467;48.142;11.616;2022-11-14T02:14:12;12.93;;;11.70;;
4903;SDS011;2467;48.142;11.616;2022-11-14T02:14:45;13.40;;;12.00;;
4903;SDS011;2467;48.142;11.616;2022-11-14T02:15:20;13.57;;;11.27;;
4903;SDS011;2467;48.142;11.616;2022-11-14T02:15:52;15.80;;;11.98;;
4903;SDS011;2467;48.142;11.616;2022-11-14T02:16:24;14.18;;;11.57;;
4903;SDS011;2467;48.142;11.616;2022-11-14T02:16:57;13.00;;;11.80;;
4903;SDS011;2467;48.142;11.616;2022-11-14T02:17:49;11.90;;;10.60;;
4903;SDS011;2467;48.142;11.616;2022-11-14T02:18:22;15.73;;;12.20;;
4903;SDS011;2467;48.142;11.616;2022-11-14T02:18:55;12.55;;;11.25;;
4903;SDS011;2467;48.142;11.616;2022-11-14T02:19:38;13.30;;;12.10;;
4903;SDS011;2467;48.142;11.616;2022-11-14T02:20:20;13.15;;;11.85;;
4903;SDS011;2467;48.142;11.616;2022-11-14T02:20:53;12.60;;;11.40;;
4903;SDS011;2467;48.142;11.616;2022-11-14T02:21:25;13.45;;;12.13;;
4903;SDS011;2467;48.142;11.616;2022-11-14T02:21:58;13.05;;;11.68;;
4903;SDS011;2467;48.142;11.616;2022-11-14T02:22:29;14.52;;;11.55;;
4903;SDS011;2467;48.142;11.616;2022-11-14T02:23:01;11.85;;;10.85;;
4903;SDS011;2467;48.142;11.616;2022-11-14T02:23:33;12.60;;;11.50;;
4903;SDS011;2467;48.142;11.616;2022-11-14T02:24:07;14.18;;;11.65;;
4903;SDS011;2467;48.142;11.616;2022-11-14T02:24:40;13.07;;;11.77;;
4903;SDS011;2467;48.142;11.616;2022-11-14T02:25:12;12.77;;;11.52;;
4903;SDS011;2467;48.142;11.616;2022-11-14T02:25:49;13.60;;;12.30;;
4903;SDS011;2467;48.142;11.616;2022-11-14T02:26:21;13.02;;;11.73;;
4903;SDS011;2467;48.142;11.616;2022-11-14T02:26:54;14.43;;;12.50;;
4903;SDS011;2467;48.142;11.616;2022-11-14T02:27:25;11.80;;;10.70;;
4903;SDS011;2467;48.142;11.616;2022-11-14T02:27:57;13.38;;;12.18;;
4903;SDS011;2467;48.142;11.616;2022-11-14T02:28:31;13.30;;;12.10;;
4903;SDS011;2467;48.142;11.616;2022-11-14T02:29:04;12.25;;;11.15;;
4903;SDS011;2467;48.142;11.616;2022-11-14T02:29:37;13.57;;;12.18;;
4903;SDS011;2467;48.142;11.616;2022-11-14T02:30:10;13.25;;;12.05;;
4903;SDS011;2467;48.142;11.616;2022-11-14T02:30:44;11.80;;;10.70;;
4903;SDS011;2467;48.142;11.616;2022-11-14T02:31:16;13.45;;;12.25;;
4903;SDS011;2467;48.142;11.616;2022-11-14T02:31:48;12.40;;;11.20;;
4903;SDS011;2467;48.142;11.616;2022-11-14T02:32:21;12.18;;;11.05;;
4903;SDS011;2467;48.142;11.616;2022-11-14T02:32:53;13.05;;;11.90;;
4903;SDS011;2467;48.142;11.616;2022-11-14T02:33:41;12.35;;;11.15;;
4903;SDS011;2467;48.142;11.616;2022-11-14T02:34:14;13.50;;;12.27;;
4903;SDS011;2467;48.142;11.616;2022-11-14T02:34:50;13.02;;;11.70;;
4903;SDS011;2467;48.142;11.616;2022-11-14T02:35:23;13.20;;;11.90;;
4903;SDS011;2467;48.142;11.616;2022-11-14T02:35:55;11.70;;;10.70;;
4903;SDS011;2467;48.142;11.616;2022-11-14T02:36:28;12.82;;;11.63;;
4903;SDS011;2467;48.142;11.616;2022-11-14T02:36:59;12.63;;;11.45;;
4903;SDS011;2467;48.142;11.616;2022-11-14T02:37:31;12.13;;;10.98;;
4903;SDS011;2467;48.142;11.616;2022-11-14T02:38:04;11.52;;;10.40;;
4903;SDS011;2467;48.142;11.616;2022-11-14T02:38:36;11.95;;;10.95;;
4903;SDS011;2467;48.142;11.616;2022-11-14T02:39:08;11.95;;;10.90;;
4903;SDS011;2467;48.142;11.616;2022-11-14T02:39:40;11.88;;;10.68;;
4903;SDS011;2467;48.142;11.616;2022-11-14T02:40:12;12.00;;;10.90;;
4903;SDS011;2467;48.142;11.616;2022-11-14T02:40:45;12.10;;;11.00;;
4903;SDS011;2467;48.142;11.616;2022-11-14T02:41:17;11.80;;;10.70;;
4903;SDS011;2467;48.142;11.616;2022-11-14T02:41:49;11.50;;;10.40;;
4903;SDS011;2467;48.142;11.616;2022-11-14T02:42:22;11.98;;;10.90;;
4903;SDS011;2467;48.142;11.616;2022-11-14T02:42:55;11.25;;;10.23;;
4903;SDS011;2467;48.142;11.616;2022-11-14T02:43:26;11.95;;;10.85;;
4903;SDS011;2467;48.142;11.616;2022-11-14T02:43:58;11.90;;;10.77;;
4903;SDS011;2467;48.142;11.616;2022-11-14T02:44:31;15.18;;;13.68;;
4903;SDS011;2467;48.142;11.616;2022-11-14T02:45:03;15.88;;;14.48;;
4903;SDS011;2467;48.142;11.616;2022-11-14T02:45:36;14.60;;;13.20;;
4903;SDS011;2467;48.142;11.616;2022-11-14T02:46:09;14.40;;;13.00;;
4903;SDS011;2467;48.142;11.616;2022-11-14T02:46:41;12.35;;;11.25;;
4903;SDS011;2467;48.142;11.616;2022-11-14T02:47:13;14.82;;;13.43;;
4903;SDS011;2467;48.142;11.616;2022-11-14T02:47:45;10.93;;;9.90;;
4903;SDS011;2467;48.142;11.616;2022-11-14T02:48:18;13.65;;;12.35;;
4903;SDS011;2467;48.142;11.616;2022-11-14T02:48:50;13.00;;;11.80;;
4903;SDS011;2467;48.142;11.616;2022-11-14T02:49:22;13.35;;;11.77;;
4903;SDS011;2467;48.142;11.616;2022-11-14T02:49:55;12.00;;;10.80;;
4903;SDS011;2467;48.142;11.616;2022-11-14T02:50:28;12.48;;;11.38;;
4903;SDS011;2467;48.142;11.616;2022-11-14T02:51:00;11.77;;;10.55;;
4903;SDS011;2467;48.142;11.616;2022-11-14T02:51:32;12.05;;;10.95;;
4903;SDS011;2467;48.142;11.616;2022-11-14T02:52:04;10.80;;;9.80;;
4903;SDS011;2467;48.142;11.616;2022-11-14T02:52:36;11.98;;;10.88;;
4903;SDS011;2467;48.142;11.616;2022-11-14T02:53:09;11.43;;;10.35;;
4903;SDS011;2467;48.142;11.616;2022-11-14T02:53:41;10.55;;;9.60;;
4903;SDS011;2467;48.142;11.616;2022-11-14T02:54:14;10.65;;;9.65;;
4903;SDS011;2467;48.142;11.616;2022-11-14T02:54:45;10.20;;;9.20;;
4903;SDS011;2467;48.142;11.616;2022-11-14T02:55:24;10.52;;;9.63;;
4903;SDS011;2467;48.142;11.616;2022-11-14T02:55:57;10.85;;;9.85;;
4903;SDS011;2467;48.142;11.616;2022-11-14T02:56:29;9.70;;;8.85;;
4903;SDS011;2467;48.142;11.616;2022-11-14T02:57:01;9.40;;;8.57;;
4903;SDS011;2467;48.142;11.616;2022-11-14T02:57:33;10.55;;;9.55;;
4903;SDS011;2467;48.142;11.616;2022-11-14T02:58:05;10.45;;;9.45;;
4903;SDS011;2467;48.142;11.616;2022-11-14T02:58:37;9.40;;;8.50;;
4903;SDS011;2467;48.142;11.616;2022-11-14T02:59:10;10.18;;;9.27;;
4903;SDS011;2467;48.142;11.616;2022-11-14T02:59:42;10.23;;;9.32;;
4903;SDS011;2467;48.142;11.616;2022-11-14T03:00:14;10.40;;;9.30;;
4903;SDS011;2467;48.142;11.616;2022-11-14T03:00:48;10.30;;;9.32;;
4903;SDS011;2467;48.142;11.616;2022-11-14T03:01:39;9.68;;;8.77;;
4903;SDS011;2467;48.142;11.616;2022-11-14T03:02:11;10.05;;;9.15;;
4903;SDS011;2467;48.142;11.616;2022-11-14T03:02:45;10.35;;;9.45;;
4903;SDS011;2467;48.142;11.616;2022-11-14T03:03:16;9.40;;;8.60;;
4903;SDS011;2467;48.142;11.616;2022-11-14T03:03:48;11.38;;;10.27;;
4903;SDS011;2467;48.142;11.616;2022-11-14T03:04:20;10.48;;;9.57;;
4903;SDS011;2467;48.142;11.616;2022-11-14T03:04:53;11.93;;;9.57;;
4903;SDS011;2467;48.142;11.616;2022-11-14T03:05:24;10.02;;;9.20;;
4903;SDS011;2467;48.142;11.616;2022-11-14T03:05:59;9.65;;;8.80;;
4903;SDS011;2467;48.142;11.616;2022-11-14T03:06:32;9.68;;;8.77;;
4903;SDS011;2467;48.142;11.616;2022-11-14T03:07:03;9.30;;;8.40;;
4903;SDS011;2467;48.142;11.616;2022-11-14T03:07:35;11.88;;;9.15;;
4903;SDS011;2467;48.142;11.616;2022-11-14T03:08:08;9.98;;;9.07;;
4903;SDS011;2467;48.142;11.616;2022-11-14T03:08:40;9.95;;;9.07;;
4903;SDS011;2467;48.142;11.616;2022-11-14T03:09:12;10.18;;;9.30;;
4903;SDS011;2467;48.142;11.616;2022-11-14T03:09:45;9.20;;;8.50;;
4903;SDS011;2467;48.142;11.616;2022-11-14T03:10:17;10.45;;;9.48;;
4903;SDS011;2467;48.142;11.616;2022-11-14T03:10:49;9.10;;;8.40;;
4903;SDS011;2467;48.142;11.616;2022-11-14T03:11:21;9.95;;;9.05;;
4903;SDS011;2467;48.142;11.616;2022-11-14T03:11:53;9.07;;;8.23;;
4903;SDS011;2467;48.142;11.616;2022-11-14T03:12:25;8.60;;;7.90;;
4903;SDS011;2467;48.142;11.616;2022-11-14T03:12:58;8.93;;;8.02;;
4903;SDS011;2467;48.142;11.616;2022-11-14T03:13:30;8.50;;;7.80;;
4903;SDS011;2467;48.142;11.616;2022-11-14T03:14:01;8.73;;;8.02;;
4903;SDS011;2467;48.142;11.616;2022-11-14T03:14:34;8.57;;;7.85;;
4903;SDS011;2467;48.142;11.616;2022-11-14T03:15:07;8.38;;;7.70;;
4903;SDS011;2467;48.142;11.616;2022-11-14T03:15:39;8.70;;;7.90;;
4903;SDS011;2467;48.142;11.616;2022-11-14T03:16:12;9.40;;;8.60;;
4903;SDS011;2467;48.142;11.616;2022-11-14T03:16:45;9.13;;;8.30;;
4903;SDS011;2467;48.142;11.616;2022-11-14T03:17:16;9.75;;;8.85;;
4903;SDS011;2467;48.142;11.616;2022-11-14T03:17:48;8.95;;;8.25;;
4903;SDS011;2467;48.142;11.616;2022-11-14T03:18:22;9.77;;;8.88;;